sensor_id;sensor_type;location;lat;lon;timestamp;P1;P2;P0
31330;PMS5003;34067;39.548;-76.088;2024-03-22T00:00:22;39;39;
31330;PMS5003;34067;39.548;-76.088;2024-03-22T00:02:50;52;52;
31330;PMS5003;34067;39.548;-76.088;2024-03-22T00:05:18;47;47;
31330;PMS5003;34067;39.548;-76.088;2024-03-22T00:07:47;55;55;
31330;PMS5003;34067;39.548;-76.088;2024-03-22T00:10:16;97;95;
31330;PMS5003;34067;39.548;-76.088;2024-03-22T00:12:44;154;154;
31330;PMS5003;34067;39.548;-76.088;2024-03-22T00:15:12;145;144;
31330;PMS5003;34067;39.548;-76.088;2024-03-22T00:17:39;6;6;
31330;PMS5003;34067;39.548;-76.088;2024-03-22T00:20:10;14;13;
31330;PMS5003;34067;39.548;-76.088;2024-03-22T00:22:38;15;15;
31330;PMS5003;34067;39.548;-76.088;2024-03-22T00:25:07;18;18;
31330;PMS5003;34067;39.548;-76.088;2024-03-22T00:27:35;22;22;
31330;PMS5003;34067;39.548;-76.088;2024-03-22T00:30:03;36;36;
31330;PMS5003;34067;39.548;-76.088;2024-03-22T00:32:32;55;55;
31330;PMS5003;34067;39.548;-76.088;2024-03-22T00:35:00;57;56;
31330;PMS5003;34067;39.548;-76.088;2024-03-22T00:37:28;50;50;
31330;PMS5003;34067;39.548;-76.088;2024-03-22T00:39:56;32;32;
31330;PMS5003;34067;39.548;-76.088;2024-03-22T00:42:25;55;54;
31330;PMS5003;34067;39.548;-76.088;2024-03-22T00:44:53;27;27;
31330;PMS5003;34067;39.548;-76.088;2024-03-22T00:47:21;36;36;
31330;PMS5003;34067;39.548;-76.088;2024-03-22T00:49:49;48;45;
31330;PMS5003;34067;39.548;-76.088;2024-03-22T00:52:17;49;48;
31330;PMS5003;34067;39.548;-76.088;2024-03-22T00:54:45;8;8;
31330;PMS5003;34067;39.548;-76.088;2024-03-22T00:57:13;17;17;
31330;PMS5003;34067;39.548;-76.088;2024-03-22T00:59:41;12;12;
31330;PMS5003;34067;39.548;-76.088;2024-03-22T01:02:10;41;41;
31330;PMS5003;34067;39.548;-76.088;2024-03-22T01:04:38;6;6;
31330;PMS5003;34067;39.548;-76.088;2024-03-22T01:07:06;65;65;
31330;PMS5003;34067;39.548;-76.088;2024-03-22T01:09:35;80;80;
31330;PMS5003;34067;39.548;-76.088;2024-03-22T01:12:02;30;30;
31330;PMS5003;34067;39.548;-76.088;2024-03-22T01:14:31;25;25;
31330;PMS5003;34067;39.548;-76.088;2024-03-22T01:16:59;18;18;
31330;PMS5003;34067;39.548;-76.088;2024-03-22T01:19:27;13;13;
31330;PMS5003;34067;39.548;-76.088;2024-03-22T01:21:54;38;38;
31330;PMS5003;34067;39.548;-76.088;2024-03-22T01:24:22;11;11;
31330;PMS5003;34067;39.548;-76.088;2024-03-22T01:26:50;25;24;
31330;PMS5003;34067;39.548;-76.088;2024-03-22T01:29:18;41;41;
31330;PMS5003;34067;39.548;-76.088;2024-03-22T01:31:45;9;9;
31330;PMS5003;34067;39.548;-76.088;2024-03-22T01:34:14;15;15;
31330;PMS5003;34067;39.548;-76.088;2024-03-22T01:36:42;28;28;
31330;PMS5003;34067;39.548;-76.088;2024-03-22T01:39:10;27;26;
31330;PMS5003;34067;39.548;-76.088;2024-03-22T01:41:37;21;20;
31330;PMS5003;34067;39.548;-76.088;2024-03-22T01:44:05;40;39;
31330;PMS5003;34067;39.548;-76.088;2024-03-22T01:46:33;45;45;
31330;PMS5003;34067;39.548;-76.088;2024-03-22T01:49:01;7;7;
31330;PMS5003;34067;39.548;-76.088;2024-03-22T01:51:30;42;42;
31330;PMS5003;34067;39.548;-76.088;2024-03-22T01:53:59;41;41;
31330;PMS5003;34067;39.548;-76.088;2024-03-22T01:56:30;33;33;
31330;PMS5003;34067;39.548;-76.088;2024-03-22T01:58:58;45;45;
31330;PMS5003;34067;39.548;-76.088;2024-03-22T02:01:26;47;46;
31330;PMS5003;34067;39.548;-76.088;2024-03-22T02:03:54;31;31;
31330;PMS5003;34067;39.548;-76.088;2024-03-22T02:06:22;52;51;
31330;PMS5003;34067;39.548;-76.088;2024-03-22T02:08:51;46;46;
31330;PMS5003;34067;39.548;-76.088;2024-03-22T02:11:18;51;51;
31330;PMS5003;34067;39.548;-76.088;2024-03-22T02:13:46;30;30;
31330;PMS5003;34067;39.548;-76.088;2024-03-22T02:16:15;42;42;
31330;PMS5003;34067;39.548;-76.088;2024-03-22T02:18:43;35;35;
31330;PMS5003;34067;39.548;-76.088;2024-03-22T02:21:10;35;35;
31330;PMS5003;34067;39.548;-76.088;2024-03-22T02:23:39;40;38;
31330;PMS5003;34067;39.548;-76.088;2024-03-22T02:26:07;43;43;
31330;PMS5003;34067;39.548;-76.088;2024-03-22T02:28:35;34;34;
31330;PMS5003;34067;39.548;-76.088;2024-03-22T02:31:04;30;30;
31330;PMS5003;34067;39.548;-76.088;2024-03-22T02:33:32;31;31;
31330;PMS5003;34067;39.548;-76.088;2024-03-22T02:36:00;38;38;
31330;PMS5003;34067;39.548;-76.088;2024-03-22T02:38:28;57;57;
31330;PMS5003;34067;39.548;-76.088;2024-03-22T02:40:57;99;99;
31330;PMS5003;34067;39.548;-76.088;2024-03-22T02:43:25;108;108;
31330;PMS5003;34067;39.548;-76.088;2024-03-22T02:45:54;115;115;
31330;PMS5003;34067;39.548;-76.088;2024-03-22T02:48:22;97;97;
31330;PMS5003;34067;39.548;-76.088;2024-03-22T02:50:50;72;72;
31330;PMS5003;34067;39.548;-76.088;2024-03-22T02:53:22;6;5;
31330;PMS5003;34067;39.548;-76.088;2024-03-22T02:55:51;6;6;
31330;PMS5003;34067;39.548;-76.088;2024-03-22T02:58:19;8;8;
31330;PMS5003;34067;39.548;-76.088;2024-03-22T03:00:47;8;8;
31330;PMS5003;34067;39.548;-76.088;2024-03-22T03:03:15;11;9;
31330;PMS5003;34067;39.548;-76.088;2024-03-22T03:05:44;24;20;
31330;PMS5003;34067;39.548;-76.088;2024-03-22T03:08:11;33;31;
31330;PMS5003;34067;39.548;-76.088;2024-03-22T03:10:39;39;37;
31330;PMS5003;34067;39.548;-76.088;2024-03-22T03:13:06;30;30;
31330;PMS5003;34067;39.548;-76.088;2024-03-22T03:15:34;24;23;
31330;PMS5003;34067;39.548;-76.088;2024-03-22T03:18:02;17;16;
31330;PMS5003;34067;39.548;-76.088;2024-03-22T03:20:31;7;7;
31330;PMS5003;34067;39.548;-76.088;2024-03-22T03:22:59;8;7;
31330;PMS5003;34067;39.548;-76.088;2024-03-22T03:25:26;7;7;
31330;PMS5003;34067;39.548;-76.088;2024-03-22T03:27:54;9;8;
31330;PMS5003;34067;39.548;-76.088;2024-03-22T03:30:22;14;9;
31330;PMS5003;34067;39.548;-76.088;2024-03-22T03:32:50;7;7;
31330;PMS5003;34067;39.548;-76.088;2024-03-22T03:35:18;15;11;
31330;PMS5003;34067;39.548;-76.088;2024-03-22T03:37:46;9;9;
31330;PMS5003;34067;39.548;-76.088;2024-03-22T03:40:13;5;5;
31330;PMS5003;34067;39.548;-76.088;2024-03-22T03:42:41;5;5;
31330;PMS5003;34067;39.548;-76.088;2024-03-22T03:45:09;5;4;
31330;PMS5003;34067;39.548;-76.088;2024-03-22T03:47:36;5;4;
31330;PMS5003;34067;39.548;-76.088;2024-03-22T03:50:04;3;3;
31330;PMS5003;34067;39.548;-76.088;2024-03-22T03:52:32;3;3;
31330;PMS5003;34067;39.548;-76.088;2024-03-22T03:55:00;3;3;
31330;PMS5003;34067;39.548;-76.088;2024-03-22T03:57:27;4;3;
31330;PMS5003;34067;39.548;-76.088;2024-03-22T03:59:55;5;5;
31330;PMS5003;34067;39.548;-76.088;2024-03-22T04:02:23;8;7;
31330;PMS5003;34067;39.548;-76.088;2024-03-22T04:04:52;4;4;
31330;PMS5003;34067;39.548;-76.088;2024-03-22T04:07:20;4;4;
31330;PMS5003;34067;39.548;-76.088;2024-03-22T04:09:49;5;5;
31330;PMS5003;34067;39.548;-76.088;2024-03-22T04:12:17;5;5;
31330;PMS5003;34067;39.548;-76.088;2024-03-22T04:14:44;4;4;
31330;PMS5003;34067;39.548;-76.088;2024-03-22T04:17:12;5;5;
31330;PMS5003;34067;39.548;-76.088;2024-03-22T04:19:39;5;5;
31330;PMS5003;34067;39.548;-76.088;2024-03-22T04:22:07;4;4;
31330;PMS5003;34067;39.548;-76.088;2024-03-22T04:24:34;3;3;
31330;PMS5003;34067;39.548;-76.088;2024-03-22T04:27:02;5;5;
31330;PMS5003;34067;39.548;-76.088;2024-03-22T04:29:30;5;5;
31330;PMS5003;34067;39.548;-76.088;2024-03-22T04:31:58;20;17;
31330;PMS5003;34067;39.548;-76.088;2024-03-22T04:34:26;22;20;
31330;PMS5003;34067;39.548;-76.088;2024-03-22T04:36:53;21;17;
31330;PMS5003;34067;39.548;-76.088;2024-03-22T04:39:22;11;10;
31330;PMS5003;34067;39.548;-76.088;2024-03-22T04:41:50;9;7;
31330;PMS5003;34067;39.548;-76.088;2024-03-22T04:44:18;5;5;
31330;PMS5003;34067;39.548;-76.088;2024-03-22T04:46:45;4;4;
31330;PMS5003;34067;39.548;-76.088;2024-03-22T04:49:14;5;5;
31330;PMS5003;34067;39.548;-76.088;2024-03-22T04:51:42;11;9;
31330;PMS5003;34067;39.548;-76.088;2024-03-22T04:54:10;10;9;
31330;PMS5003;34067;39.548;-76.088;2024-03-22T04:56:38;8;7;
31330;PMS5003;34067;39.548;-76.088;2024-03-22T04:59:06;4;4;
31330;PMS5003;34067;39.548;-76.088;2024-03-22T05:03:14;8;7;
31330;PMS5003;34067;39.548;-76.088;2024-03-22T05:05:42;7;4;
31330;PMS5003;34067;39.548;-76.088;2024-03-22T05:08:10;8;4;
31330;PMS5003;34067;39.548;-76.088;2024-03-22T05:10:37;5;5;
31330;PMS5003;34067;39.548;-76.088;2024-03-22T05:13:06;5;5;
31330;PMS5003;34067;39.548;-76.088;2024-03-22T05:15:33;4;4;
31330;PMS5003;34067;39.548;-76.088;2024-03-22T05:18:02;7;4;
31330;PMS5003;34067;39.548;-76.088;2024-03-22T05:20:30;5;4;
31330;PMS5003;34067;39.548;-76.088;2024-03-22T05:22:58;7;7;
31330;PMS5003;34067;39.548;-76.088;2024-03-22T05:25:26;11;11;
31330;PMS5003;34067;39.548;-76.088;2024-03-22T05:27:54;10;8;
31330;PMS5003;34067;39.548;-76.088;2024-03-22T05:30:21;8;8;
31330;PMS5003;34067;39.548;-76.088;2024-03-22T05:32:49;8;8;
31330;PMS5003;34067;39.548;-76.088;2024-03-22T05:35:16;15;13;
31330;PMS5003;34067;39.548;-76.088;2024-03-22T05:37:44;5;5;
31330;PMS5003;34067;39.548;-76.088;2024-03-22T05:40:12;10;8;
31330;PMS5003;34067;39.548;-76.088;2024-03-22T05:42:40;11;10;
31330;PMS5003;34067;39.548;-76.088;2024-03-22T05:45:09;5;4;
31330;PMS5003;34067;39.548;-76.088;2024-03-22T05:47:37;4;4;
31330;PMS5003;34067;39.548;-76.088;2024-03-22T05:50:06;9;8;
31330;PMS5003;34067;39.548;-76.088;2024-03-22T05:52:34;9;7;
31330;PMS5003;34067;39.548;-76.088;2024-03-22T05:55:02;7;5;
31330;PMS5003;34067;39.548;-76.088;2024-03-22T05:57:30;10;9;
31330;PMS5003;34067;39.548;-76.088;2024-03-22T05:59:58;5;5;
31330;PMS5003;34067;39.548;-76.088;2024-03-22T06:02:25;8;8;
31330;PMS5003;34067;39.548;-76.088;2024-03-22T06:04:53;5;4;
31330;PMS5003;34067;39.548;-76.088;2024-03-22T06:07:20;8;8;
31330;PMS5003;34067;39.548;-76.088;2024-03-22T06:09:48;5;5;
31330;PMS5003;34067;39.548;-76.088;2024-03-22T06:12:16;5;5;
31330;PMS5003;34067;39.548;-76.088;2024-03-22T06:14:44;9;8;
31330;PMS5003;34067;39.548;-76.088;2024-03-22T06:17:12;5;4;
31330;PMS5003;34067;39.548;-76.088;2024-03-22T06:19:40;5;4;
31330;PMS5003;34067;39.548;-76.088;2024-03-22T06:22:07;5;4;
31330;PMS5003;34067;39.548;-76.088;2024-03-22T06:24:35;3;3;
31330;PMS5003;34067;39.548;-76.088;2024-03-22T06:27:04;8;5;
31330;PMS5003;34067;39.548;-76.088;2024-03-22T06:29:32;5;3;
31330;PMS5003;34067;39.548;-76.088;2024-03-22T06:32:00;4;4;
31330;PMS5003;34067;39.548;-76.088;2024-03-22T06:34:28;7;5;
31330;PMS5003;34067;39.548;-76.088;2024-03-22T06:36:55;4;4;
31330;PMS5003;34067;39.548;-76.088;2024-03-22T06:39:23;7;7;
31330;PMS5003;34067;39.548;-76.088;2024-03-22T06:41:50;4;3;
31330;PMS5003;34067;39.548;-76.088;2024-03-22T06:44:18;5;4;
31330;PMS5003;34067;39.548;-76.088;2024-03-22T06:46:47;4;3;
31330;PMS5003;34067;39.548;-76.088;2024-03-22T06:49:15;5;4;
31330;PMS5003;34067;39.548;-76.088;2024-03-22T06:51:42;6;6;
31330;PMS5003;34067;39.548;-76.088;2024-03-22T06:54:10;5;5;
31330;PMS5003;34067;39.548;-76.088;2024-03-22T06:56:38;6;6;
31330;PMS5003;34067;39.548;-76.088;2024-03-22T06:59:05;6;6;
31330;PMS5003;34067;39.548;-76.088;2024-03-22T07:01:33;8;6;
31330;PMS5003;34067;39.548;-76.088;2024-03-22T07:04:00;6;6;
31330;PMS5003;34067;39.548;-76.088;2024-03-22T07:06:28;7;7;
31330;PMS5003;34067;39.548;-76.088;2024-03-22T07:08:56;6;6;
31330;PMS5003;34067;39.548;-76.088;2024-03-22T07:11:24;3;3;
31330;PMS5003;34067;39.548;-76.088;2024-03-22T07:13:51;7;6;
31330;PMS5003;34067;39.548;-76.088;2024-03-22T07:16:19;4;4;
31330;PMS5003;34067;39.548;-76.088;2024-03-22T07:18:47;4;4;
31330;PMS5003;34067;39.548;-76.088;2024-03-22T07:21:14;6;4;
31330;PMS5003;34067;39.548;-76.088;2024-03-22T07:23:42;3;3;
31330;PMS5003;34067;39.548;-76.088;2024-03-22T07:26:09;4;4;
31330;PMS5003;34067;39.548;-76.088;2024-03-22T07:28:37;4;4;
31330;PMS5003;34067;39.548;-76.088;2024-03-22T07:31:05;6;4;
31330;PMS5003;34067;39.548;-76.088;2024-03-22T07:33:33;4;4;
31330;PMS5003;34067;39.548;-76.088;2024-03-22T07:36:02;8;7;
31330;PMS5003;34067;39.548;-76.088;2024-03-22T07:38:30;7;6;
31330;PMS5003;34067;39.548;-76.088;2024-03-22T07:40:58;8;7;
31330;PMS5003;34067;39.548;-76.088;2024-03-22T07:43:26;7;6;
31330;PMS5003;34067;39.548;-76.088;2024-03-22T07:45:53;3;3;
31330;PMS5003;34067;39.548;-76.088;2024-03-22T07:48:21;6;6;
31330;PMS5003;34067;39.548;-76.088;2024-03-22T07:50:55;7;6;
31330;PMS5003;34067;39.548;-76.088;2024-03-22T07:53:24;6;4;
31330;PMS5003;34067;39.548;-76.088;2024-03-22T07:55:53;6;3;
31330;PMS5003;34067;39.548;-76.088;2024-03-22T07:58:21;3;3;
31330;PMS5003;34067;39.548;-76.088;2024-03-22T08:00:48;4;4;
31330;PMS5003;34067;39.548;-76.088;2024-03-22T08:03:16;2;2;
31330;PMS5003;34067;39.548;-76.088;2024-03-22T08:05:44;3;3;
31330;PMS5003;34067;39.548;-76.088;2024-03-22T08:08:12;3;3;
31330;PMS5003;34067;39.548;-76.088;2024-03-22T08:10:41;3;3;
31330;PMS5003;34067;39.548;-76.088;2024-03-22T08:13:08;3;3;
31330;PMS5003;34067;39.548;-76.088;2024-03-22T08:15:36;3;2;
31330;PMS5003;34067;39.548;-76.088;2024-03-22T08:18:03;3;3;
31330;PMS5003;34067;39.548;-76.088;2024-03-22T08:20:32;3;3;
31330;PMS5003;34067;39.548;-76.088;2024-03-22T08:22:59;3;3;
31330;PMS5003;34067;39.548;-76.088;2024-03-22T08:25:27;2;2;
31330;PMS5003;34067;39.548;-76.088;2024-03-22T08:27:55;3;3;
31330;PMS5003;34067;39.548;-76.088;2024-03-22T08:30:23;3;3;
31330;PMS5003;34067;39.548;-76.088;2024-03-22T08:32:52;6;4;
31330;PMS5003;34067;39.548;-76.088;2024-03-22T08:35:20;2;2;
31330;PMS5003;34067;39.548;-76.088;2024-03-22T08:37:48;3;3;
31330;PMS5003;34067;39.548;-76.088;2024-03-22T08:40:15;3;3;
31330;PMS5003;34067;39.548;-76.088;2024-03-22T08:42:44;2;2;
31330;PMS5003;34067;39.548;-76.088;2024-03-22T08:45:11;2;2;
31330;PMS5003;34067;39.548;-76.088;2024-03-22T08:47:39;4;3;
31330;PMS5003;34067;39.548;-76.088;2024-03-22T08:50:07;4;3;
31330;PMS5003;34067;39.548;-76.088;2024-03-22T08:52:35;3;3;
31330;PMS5003;34067;39.548;-76.088;2024-03-22T08:55:03;3;3;
31330;PMS5003;34067;39.548;-76.088;2024-03-22T08:57:31;4;4;
31330;PMS5003;34067;39.548;-76.088;2024-03-22T08:59:59;3;2;
31330;PMS5003;34067;39.548;-76.088;2024-03-22T09:02:27;4;2;
31330;PMS5003;34067;39.548;-76.088;2024-03-22T09:04:55;3;3;
31330;PMS5003;34067;39.548;-76.088;2024-03-22T09:07:22;2;2;
31330;PMS5003;34067;39.548;-76.088;2024-03-22T09:09:50;2;2;
31330;PMS5003;34067;39.548;-76.088;2024-03-22T09:12:18;2;2;
31330;PMS5003;34067;39.548;-76.088;2024-03-22T09:14:46;4;3;
31330;PMS5003;34067;39.548;-76.088;2024-03-22T09:17:14;2;2;
31330;PMS5003;34067;39.548;-76.088;2024-03-22T09:19:41;3;3;
31330;PMS5003;34067;39.548;-76.088;2024-03-22T09:22:09;2;2;
31330;PMS5003;34067;39.548;-76.088;2024-03-22T09:24:37;3;3;
31330;PMS5003;34067;39.548;-76.088;2024-03-22T09:27:04;3;3;
31330;PMS5003;34067;39.548;-76.088;2024-03-22T09:29:32;3;3;
31330;PMS5003;34067;39.548;-76.088;2024-03-22T09:31:59;2;2;
31330;PMS5003;34067;39.548;-76.088;2024-03-22T09:34:27;3;3;
31330;PMS5003;34067;39.548;-76.088;2024-03-22T09:36:55;3;3;
31330;PMS5003;34067;39.548;-76.088;2024-03-22T09:39:22;3;3;
31330;PMS5003;34067;39.548;-76.088;2024-03-22T09:41:51;4;4;
31330;PMS5003;34067;39.548;-76.088;2024-03-22T09:44:24;4;4;
31330;PMS5003;34067;39.548;-76.088;2024-03-22T09:46:54;3;3;
31330;PMS5003;34067;39.548;-76.088;2024-03-22T09:49:23;2;2;
31330;PMS5003;34067;39.548;-76.088;2024-03-22T09:51:52;3;3;
31330;PMS5003;34067;39.548;-76.088;2024-03-22T09:54:22;4;3;
31330;PMS5003;34067;39.548;-76.088;2024-03-22T09:56:51;4;3;
31330;PMS5003;34067;39.548;-76.088;2024-03-22T09:59:21;2;2;
31330;PMS5003;34067;39.548;-76.088;2024-03-22T10:01:49;3;3;
31330;PMS5003;34067;39.548;-76.088;2024-03-22T10:04:19;2;2;
31330;PMS5003;34067;39.548;-76.088;2024-03-22T10:06:48;4;3;
31330;PMS5003;34067;39.548;-76.088;2024-03-22T10:09:16;3;3;
31330;PMS5003;34067;39.548;-76.088;2024-03-22T10:11:44;2;2;
31330;PMS5003;34067;39.548;-76.088;2024-03-22T10:14:13;2;2;
31330;PMS5003;34067;39.548;-76.088;2024-03-22T10:16:40;22;17;
31330;PMS5003;34067;39.548;-76.088;2024-03-22T10:19:08;4;4;
31330;PMS5003;34067;39.548;-76.088;2024-03-22T10:21:36;6;4;
31330;PMS5003;34067;39.548;-76.088;2024-03-22T10:24:04;3;3;
31330;PMS5003;34067;39.548;-76.088;2024-03-22T10:26:33;3;3;
31330;PMS5003;34067;39.548;-76.088;2024-03-22T10:29:00;4;3;
31330;PMS5003;34067;39.548;-76.088;2024-03-22T10:31:33;2;1;
31330;PMS5003;34067;39.548;-76.088;2024-03-22T10:34:02;4;2;
31330;PMS5003;34067;39.548;-76.088;2024-03-22T10:36:30;3;3;
31330;PMS5003;34067;39.548;-76.088;2024-03-22T10:38:59;4;3;
31330;PMS5003;34067;39.548;-76.088;2024-03-22T10:41:29;3;3;
31330;PMS5003;34067;39.548;-76.088;2024-03-22T10:43:56;4;3;
31330;PMS5003;34067;39.548;-76.088;2024-03-22T10:46:27;3;3;
31330;PMS5003;34067;39.548;-76.088;2024-03-22T10:48:57;4;4;
31330;PMS5003;34067;39.548;-76.088;2024-03-22T10:51:25;3;3;
31330;PMS5003;34067;39.548;-76.088;2024-03-22T10:53:54;4;4;
31330;PMS5003;34067;39.548;-76.088;2024-03-22T10:56:23;3;3;
31330;PMS5003;34067;39.548;-76.088;2024-03-22T10:58:52;6;6;
31330;PMS5003;34067;39.548;-76.088;2024-03-22T11:01:23;5;3;
31330;PMS5003;34067;39.548;-76.088;2024-03-22T11:04:02;3;3;
31330;PMS5003;34067;39.548;-76.088;2024-03-22T11:06:30;5;3;
31330;PMS5003;34067;39.548;-76.088;2024-03-22T11:08:59;5;5;
31330;PMS5003;34067;39.548;-76.088;2024-03-22T11:11:28;3;3;
31330;PMS5003;34067;39.548;-76.088;2024-03-22T11:13:56;3;3;
31330;PMS5003;34067;39.548;-76.088;2024-03-22T11:16:24;5;5;
31330;PMS5003;34067;39.548;-76.088;2024-03-22T11:18:52;2;2;
31330;PMS5003;34067;39.548;-76.088;2024-03-22T11:21:20;3;3;
31330;PMS5003;34067;39.548;-76.088;2024-03-22T11:23:47;2;2;
31330;PMS5003;34067;39.548;-76.088;2024-03-22T11:26:15;4;3;
31330;PMS5003;34067;39.548;-76.088;2024-03-22T11:28:43;4;4;
31330;PMS5003;34067;39.548;-76.088;2024-03-22T11:31:11;2;2;
31330;PMS5003;34067;39.548;-76.088;2024-03-22T11:33:39;3;3;
31330;PMS5003;34067;39.548;-76.088;2024-03-22T11:36:08;4;3;
31330;PMS5003;34067;39.548;-76.088;2024-03-22T11:38:36;2;2;
31330;PMS5003;34067;39.548;-76.088;2024-03-22T11:41:04;4;4;
31330;PMS5003;34067;39.548;-76.088;2024-03-22T11:43:33;3;3;
31330;PMS5003;34067;39.548;-76.088;2024-03-22T11:46:02;6;6;
31330;PMS5003;34067;39.548;-76.088;2024-03-22T11:48:30;3;3;
31330;PMS5003;34067;39.548;-76.088;2024-03-22T11:50:58;5;5;
31330;PMS5003;34067;39.548;-76.088;2024-03-22T11:53:25;3;2;
31330;PMS5003;34067;39.548;-76.088;2024-03-22T11:55:53;5;3;
31330;PMS5003;34067;39.548;-76.088;2024-03-22T11:58:21;2;2;
31330;PMS5003;34067;39.548;-76.088;2024-03-22T12:00:48;6;4;
31330;PMS5003;34067;39.548;-76.088;2024-03-22T12:03:17;3;3;
31330;PMS5003;34067;39.548;-76.088;2024-03-22T12:05:45;6;5;
31330;PMS5003;34067;39.548;-76.088;2024-03-22T12:08:13;5;3;
31330;PMS5003;34067;39.548;-76.088;2024-03-22T12:10:41;5;5;
31330;PMS5003;34067;39.548;-76.088;2024-03-22T12:13:09;4;4;
31330;PMS5003;34067;39.548;-76.088;2024-03-22T12:15:38;3;3;
31330;PMS5003;34067;39.548;-76.088;2024-03-22T12:18:06;3;3;
31330;PMS5003;34067;39.548;-76.088;2024-03-22T12:20:34;6;4;
31330;PMS5003;34067;39.548;-76.088;2024-03-22T12:23:01;4;3;
31330;PMS5003;34067;39.548;-76.088;2024-03-22T12:25:29;4;4;
31330;PMS5003;34067;39.548;-76.088;2024-03-22T12:27:56;4;3;
31330;PMS5003;34067;39.548;-76.088;2024-03-22T12:30:24;3;3;
31330;PMS5003;34067;39.548;-76.088;2024-03-22T12:32:57;4;3;
31330;PMS5003;34067;39.548;-76.088;2024-03-22T12:35:24;4;4;
31330;PMS5003;34067;39.548;-76.088;2024-03-22T12:37:52;2;2;
31330;PMS5003;34067;39.548;-76.088;2024-03-22T12:40:21;3;3;
31330;PMS5003;34067;39.548;-76.088;2024-03-22T12:42:48;2;2;
31330;PMS5003;34067;39.548;-76.088;2024-03-22T12:45:16;3;3;
31330;PMS5003;34067;39.548;-76.088;2024-03-22T12:47:43;3;3;
31330;PMS5003;34067;39.548;-76.088;2024-03-22T12:50:11;3;2;
31330;PMS5003;34067;39.548;-76.088;2024-03-22T12:52:39;3;3;
31330;PMS5003;34067;39.548;-76.088;2024-03-22T12:55:07;3;3;
31330;PMS5003;34067;39.548;-76.088;2024-03-22T12:57:35;3;3;
31330;PMS5003;34067;39.548;-76.088;2024-03-22T13:00:05;3;2;
31330;PMS5003;34067;39.548;-76.088;2024-03-22T13:02:34;3;2;
31330;PMS5003;34067;39.548;-76.088;2024-03-22T13:05:02;3;3;
31330;PMS5003;34067;39.548;-76.088;2024-03-22T13:07:30;3;2;
31330;PMS5003;34067;39.548;-76.088;2024-03-22T13:09:58;2;2;
31330;PMS5003;34067;39.548;-76.088;2024-03-22T13:12:26;3;3;
31330;PMS5003;34067;39.548;-76.088;2024-03-22T13:14:54;1;1;
31330;PMS5003;34067;39.548;-76.088;2024-03-22T13:17:23;4;2;
31330;PMS5003;34067;39.548;-76.088;2024-03-22T13:19:51;2;2;
31330;PMS5003;34067;39.548;-76.088;2024-03-22T13:22:18;3;3;
31330;PMS5003;34067;39.548;-76.088;2024-03-22T13:24:46;4;4;
31330;PMS5003;34067;39.548;-76.088;2024-03-22T13:27:14;2;2;
31330;PMS5003;34067;39.548;-76.088;2024-03-22T13:29:42;3;3;
31330;PMS5003;34067;39.548;-76.088;2024-03-22T13:32:10;3;3;
31330;PMS5003;34067;39.548;-76.088;2024-03-22T13:34:37;2;2;
31330;PMS5003;34067;39.548;-76.088;2024-03-22T13:37:05;5;3;
31330;PMS5003;34067;39.548;-76.088;2024-03-22T13:39:32;3;3;
31330;PMS5003;34067;39.548;-76.088;2024-03-22T13:42:00;4;4;
31330;PMS5003;34067;39.548;-76.088;2024-03-22T13:44:32;2;2;
31330;PMS5003;34067;39.548;-76.088;2024-03-22T13:47:00;3;3;
31330;PMS5003;34067;39.548;-76.088;2024-03-22T13:49:28;5;3;
31330;PMS5003;34067;39.548;-76.088;2024-03-22T13:51:57;3;3;
31330;PMS5003;34067;39.548;-76.088;2024-03-22T13:54:25;3;3;
31330;PMS5003;34067;39.548;-76.088;2024-03-22T13:56:53;3;3;
31330;PMS5003;34067;39.548;-76.088;2024-03-22T13:59:22;5;4;
31330;PMS5003;34067;39.548;-76.088;2024-03-22T14:01:50;4;3;
31330;PMS5003;34067;39.548;-76.088;2024-03-22T14:04:17;20;17;
31330;PMS5003;34067;39.548;-76.088;2024-03-22T14:06:46;3;3;
31330;PMS5003;34067;39.548;-76.088;2024-03-22T14:09:14;3;3;
31330;PMS5003;34067;39.548;-76.088;2024-03-22T14:11:42;2;2;
31330;PMS5003;34067;39.548;-76.088;2024-03-22T14:14:09;2;2;
31330;PMS5003;34067;39.548;-76.088;2024-03-22T14:16:37;3;3;
31330;PMS5003;34067;39.548;-76.088;2024-03-22T14:19:06;3;3;
31330;PMS5003;34067;39.548;-76.088;2024-03-22T14:21:34;2;2;
31330;PMS5003;34067;39.548;-76.088;2024-03-22T14:24:02;3;2;
31330;PMS5003;34067;39.548;-76.088;2024-03-22T14:26:30;2;2;
31330;PMS5003;34067;39.548;-76.088;2024-03-22T14:28:58;2;2;
31330;PMS5003;34067;39.548;-76.088;2024-03-22T14:31:25;4;4;
31330;PMS5003;34067;39.548;-76.088;2024-03-22T14:33:53;3;3;
31330;PMS5003;34067;39.548;-76.088;2024-03-22T14:36:20;4;3;
31330;PMS5003;34067;39.548;-76.088;2024-03-22T14:38:48;5;4;
31330;PMS5003;34067;39.548;-76.088;2024-03-22T14:41:15;18;17;
31330;PMS5003;34067;39.548;-76.088;2024-03-22T14:43:44;52;52;
31330;PMS5003;34067;39.548;-76.088;2024-03-22T14:46:11;42;42;
31330;PMS5003;34067;39.548;-76.088;2024-03-22T14:48:39;23;23;
31330;PMS5003;34067;39.548;-76.088;2024-03-22T14:51:06;23;22;
31330;PMS5003;34067;39.548;-76.088;2024-03-22T14:53:34;13;13;
31330;PMS5003;34067;39.548;-76.088;2024-03-22T14:56:02;10;10;
31330;PMS5003;34067;39.548;-76.088;2024-03-22T14:58:31;4;4;
31330;PMS5003;34067;39.548;-76.088;2024-03-22T15:01:01;3;3;
31330;PMS5003;34067;39.548;-76.088;2024-03-22T15:03:30;2;2;
31330;PMS5003;34067;39.548;-76.088;2024-03-22T15:05:59;4;4;
31330;PMS5003;34067;39.548;-76.088;2024-03-22T15:08:27;4;4;
31330;PMS5003;34067;39.548;-76.088;2024-03-22T15:10:55;4;3;
31330;PMS5003;34067;39.548;-76.088;2024-03-22T15:13:23;4;4;
31330;PMS5003;34067;39.548;-76.088;2024-03-22T15:15:54;4;4;
31330;PMS5003;34067;39.548;-76.088;2024-03-22T15:18:22;3;3;
31330;PMS5003;34067;39.548;-76.088;2024-03-22T15:20:50;6;4;
31330;PMS5003;34067;39.548;-76.088;2024-03-22T15:23:19;5;4;
31330;PMS5003;34067;39.548;-76.088;2024-03-22T15:25:47;5;5;
31330;PMS5003;34067;39.548;-76.088;2024-03-22T15:28:16;7;7;
31330;PMS5003;34067;39.548;-76.088;2024-03-22T15:30:44;6;5;
31330;PMS5003;34067;39.548;-76.088;2024-03-22T15:33:12;4;4;
31330;PMS5003;34067;39.548;-76.088;2024-03-22T15:35:41;5;5;
31330;PMS5003;34067;39.548;-76.088;2024-03-22T15:38:09;5;5;
31330;PMS5003;34067;39.548;-76.088;2024-03-22T15:40:36;5;5;
31330;PMS5003;34067;39.548;-76.088;2024-03-22T15:43:05;5;5;
31330;PMS5003;34067;39.548;-76.088;2024-03-22T15:45:32;4;4;
31330;PMS5003;34067;39.548;-76.088;2024-03-22T15:48:00;5;5;
31330;PMS5003;34067;39.548;-76.088;2024-03-22T15:50:28;5;4;
31330;PMS5003;34067;39.548;-76.088;2024-03-22T15:52:56;14;14;
31330;PMS5003;34067;39.548;-76.088;2024-03-22T15:55:24;35;35;
31330;PMS5003;34067;39.548;-76.088;2024-03-22T15:57:53;33;33;
31330;PMS5003;34067;39.548;-76.088;2024-03-22T16:00:21;4;4;
31330;PMS5003;34067;39.548;-76.088;2024-03-22T16:02:50;5;5;
31330;PMS5003;34067;39.548;-76.088;2024-03-22T16:05:18;3;3;
31330;PMS5003;34067;39.548;-76.088;2024-03-22T16:07:46;2;2;
31330;PMS5003;34067;39.548;-76.088;2024-03-22T16:10:15;4;3;
31330;PMS5003;34067;39.548;-76.088;2024-03-22T16:12:43;4;3;
31330;PMS5003;34067;39.548;-76.088;2024-03-22T16:15:12;4;4;